sensor_id;sensor_type;location;lat;lon;timestamp;P1;durP1;ratioP1;P2;durP2;ratioP2
54787;SDS011;59598;48.112;16.280;2023-03-04T00:01:35;39.60;;;17.40;;
54787;SDS011;59598;48.112;16.280;2023-03-04T00:04:06;37.72;;;16.67;;
54787;SDS011;59598;48.112;16.280;2023-03-04T00:06:40;30.45;;;16.02;;
54787;SDS011;59598;48.112;16.280;2023-03-04T00:09:12;34.13;;;15.65;;
54787;SDS011;59598;48.112;16.280;2023-03-04T00:11:43;31.20;;;15.75;;
54787;SDS011;59598;48.112;16.280;2023-03-04T00:14:16;30.30;;;16.23;;
54787;SDS011;59598;48.112;16.280;2023-03-04T00:16:48;34.42;;;15.20;;
54787;SDS011;59598;48.112;16.280;2023-03-04T00:19:22;31.80;;;15.05;;
54787;SDS011;59598;48.112;16.280;2023-03-04T00:21:54;31.80;;;15.90;;
54787;SDS011;59598;48.112;16.280;2023-03-04T00:24:28;37.00;;;16.10;;
54787;SDS011;59598;48.112;16.280;2023-03-04T00:27:08;35.05;;;15.23;;
54787;SDS011;59598;48.112;16.280;2023-03-04T00:29:39;35.92;;;16.08;;
54787;SDS011;59598;48.112;16.280;2023-03-04T00:32:15;32.28;;;14.57;;
54787;SDS011;59598;48.112;16.280;2023-03-04T00:34:47;32.78;;;16.10;;
54787;SDS011;59598;48.112;16.280;2023-03-04T00:37:19;35.80;;;16.65;;
54787;SDS011;59598;48.112;16.280;2023-03-04T00:39:55;33.88;;;16.85;;
54787;SDS011;59598;48.112;16.280;2023-03-04T00:42:29;37.15;;;16.60;;
54787;SDS011;59598;48.112;16.280;2023-03-04T00:45:00;34.72;;;15.45;;
54787;SDS011;59598;48.112;16.280;2023-03-04T00:47:32;34.55;;;15.18;;
54787;SDS011;59598;48.112;16.280;2023-03-04T00:50:08;31.33;;;14.88;;
54787;SDS011;59598;48.112;16.280;2023-03-04T00:52:45;33.72;;;15.80;;
54787;SDS011;59598;48.112;16.280;2023-03-04T00:55:23;38.47;;;16.75;;
54787;SDS011;59598;48.112;16.280;2023-03-04T00:57:55;25.10;;;12.88;;
54787;SDS011;59598;48.112;16.280;2023-03-04T01:03:10;33.40;;;14.18;;
54787;SDS011;59598;48.112;16.280;2023-03-04T01:05:41;36.90;;;14.32;;
54787;SDS011;59598;48.112;16.280;2023-03-04T01:08:15;27.90;;;14.43;;
54787;SDS011;59598;48.112;16.280;2023-03-04T01:10:48;28.80;;;14.13;;
54787;SDS011;59598;48.112;16.280;2023-03-04T01:13:19;30.45;;;12.85;;
54787;SDS011;59598;48.112;16.280;2023-03-04T01:15:51;28.40;;;13.88;;
54787;SDS011;59598;48.112;16.280;2023-03-04T01:18:22;27.73;;;13.30;;
54787;SDS011;59598;48.112;16.280;2023-03-04T01:20:54;26.95;;;13.27;;
54787;SDS011;59598;48.112;16.280;2023-03-04T01:23:31;29.48;;;12.20;;
54787;SDS011;59598;48.112;16.280;2023-03-04T01:26:04;26.00;;;11.80;;
54787;SDS011;59598;48.112;16.280;2023-03-04T01:28:39;23.80;;;11.73;;
54787;SDS011;59598;48.112;16.280;2023-03-04T01:31:13;20.58;;;10.98;;
54787;SDS011;59598;48.112;16.280;2023-03-04T01:33:45;22.10;;;12.50;;
54787;SDS011;59598;48.112;16.280;2023-03-04T01:36:17;20.25;;;11.15;;
54787;SDS011;59598;48.112;16.280;2023-03-04T01:38:51;22.42;;;12.00;;
54787;SDS011;59598;48.112;16.280;2023-03-04T01:41:26;22.02;;;10.65;;
54787;SDS011;59598;48.112;16.280;2023-03-04T01:43:59;20.67;;;10.88;;
54787;SDS011;59598;48.112;16.280;2023-03-04T01:46:32;21.25;;;11.68;;
54787;SDS011;59598;48.112;16.280;2023-03-04T01:49:14;24.05;;;11.38;;
54787;SDS011;59598;48.112;16.280;2023-03-04T01:51:47;22.55;;;10.35;;
54787;SDS011;59598;48.112;16.280;2023-03-04T01:54:22;20.95;;;10.43;;
54787;SDS011;59598;48.112;16.280;2023-03-04T01:57:00;25.65;;;11.23;;
54787;SDS011;59598;48.112;16.280;2023-03-04T02:00:13;22.35;;;11.35;;
54787;SDS011;59598;48.112;16.280;2023-03-04T02:02:51;24.95;;;12.00;;
54787;SDS011;59598;48.112;16.280;2023-03-04T02:05:27;22.40;;;11.05;;
54787;SDS011;59598;48.112;16.280;2023-03-04T02:08:00;25.23;;;10.38;;
54787;SDS011;59598;48.112;16.280;2023-03-04T02:10:38;20.25;;;10.40;;
54787;SDS011;59598;48.112;16.280;2023-03-04T02:13:19;17.80;;;10.35;;
54787;SDS011;59598;48.112;16.280;2023-03-04T02:15:52;28.42;;;12.88;;
54787;SDS011;59598;48.112;16.280;2023-03-04T02:18:24;29.38;;;12.23;;
54787;SDS011;59598;48.112;16.280;2023-03-04T02:26:49;26.83;;;13.70;;
54787;SDS011;59598;48.112;16.280;2023-03-04T02:29:20;34.13;;;13.77;;
54787;SDS011;59598;48.112;16.280;2023-03-04T02:34:30;23.98;;;13.35;;
54787;SDS011;59598;48.112;16.280;2023-03-04T02:37:05;31.25;;;15.70;;
54787;SDS011;59598;48.112;16.280;2023-03-04T02:42:13;35.75;;;15.68;;
54787;SDS011;59598;48.112;16.280;2023-03-04T02:44:58;37.78;;;17.17;;
54787;SDS011;59598;48.112;16.280;2023-03-04T02:47:31;40.88;;;18.67;;
54787;SDS011;59598;48.112;16.280;2023-03-04T02:50:02;42.38;;;18.23;;
54787;SDS011;59598;48.112;16.280;2023-03-04T02:52:35;36.90;;;17.45;;
54787;SDS011;59598;48.112;16.280;2023-03-04T02:55:07;33.33;;;16.35;;
54787;SDS011;59598;48.112;16.280;2023-03-04T02:57:41;30.02;;;15.68;;
54787;SDS011;59598;48.112;16.280;2023-03-04T03:00:13;26.60;;;13.68;;
54787;SDS011;59598;48.112;16.280;2023-03-04T03:02:47;32.35;;;15.80;;
54787;SDS011;59598;48.112;16.280;2023-03-04T03:05:19;34.50;;;17.05;;
54787;SDS011;59598;48.112;16.280;2023-03-04T03:07:52;31.15;;;14.20;;
54787;SDS011;59598;48.112;16.280;2023-03-04T03:10:27;33.38;;;16.17;;
54787;SDS011;59598;48.112;16.280;2023-03-04T03:13:00;40.75;;;17.27;;
54787;SDS011;59598;48.112;16.280;2023-03-04T03:15:32;37.92;;;16.42;;
54787;SDS011;59598;48.112;16.280;2023-03-04T03:18:11;39.85;;;17.10;;
54787;SDS011;59598;48.112;16.280;2023-03-04T03:20:43;33.28;;;16.48;;
54787;SDS011;59598;48.112;16.280;2023-03-04T03:23:17;39.17;;;18.08;;
54787;SDS011;59598;48.112;16.280;2023-03-04T03:25:50;35.47;;;17.48;;
54787;SDS011;59598;48.112;16.280;2023-03-04T03:28:22;36.80;;;17.65;;
54787;SDS011;59598;48.112;16.280;2023-03-04T03:30:53;32.25;;;17.35;;
54787;SDS011;59598;48.112;16.280;2023-03-04T03:33:25;43.40;;;18.10;;
54787;SDS011;59598;48.112;16.280;2023-03-04T03:35:57;44.05;;;17.65;;
54787;SDS011;59598;48.112;16.280;2023-03-04T03:38:29;37.20;;;17.88;;
54787;SDS011;59598;48.112;16.280;2023-03-04T03:41:01;42.03;;;18.05;;
54787;SDS011;59598;48.112;16.280;2023-03-04T03:43:32;45.25;;;19.48;;
54787;SDS011;59598;48.112;16.280;2023-03-04T03:46:04;41.85;;;17.70;;
54787;SDS011;59598;48.112;16.280;2023-03-04T03:48:35;44.47;;;19.33;;
54787;SDS011;59598;48.112;16.280;2023-03-04T03:51:07;47.90;;;20.67;;
54787;SDS011;59598;48.112;16.280;2023-03-04T03:53:39;41.28;;;18.65;;
54787;SDS011;59598;48.112;16.280;2023-03-04T03:56:12;40.42;;;21.15;;
54787;SDS011;59598;48.112;16.280;2023-03-04T03:58:48;45.80;;;19.15;;
54787;SDS011;59598;48.112;16.280;2023-03-04T04:01:22;44.15;;;19.17;;
54787;SDS011;59598;48.112;16.280;2023-03-04T04:03:54;48.03;;;19.23;;
54787;SDS011;59598;48.112;16.280;2023-03-04T04:06:25;46.80;;;18.70;;
54787;SDS011;59598;48.112;16.280;2023-03-04T04:08:59;43.45;;;20.35;;
54787;SDS011;59598;48.112;16.280;2023-03-04T04:11:31;46.03;;;17.75;;
54787;SDS011;59598;48.112;16.280;2023-03-04T04:14:04;45.88;;;20.00;;
54787;SDS011;59598;48.112;16.280;2023-03-04T04:16:35;48.63;;;20.45;;
54787;SDS011;59598;48.112;16.280;2023-03-04T04:19:15;39.08;;;16.45;;
54787;SDS011;59598;48.112;16.280;2023-03-04T04:21:49;43.67;;;21.00;;
54787;SDS011;59598;48.112;16.280;2023-03-04T04:24:21;40.83;;;18.17;;
54787;SDS011;59598;48.112;16.280;2023-03-04T04:26:55;40.20;;;18.55;;
54787;SDS011;59598;48.112;16.280;2023-03-04T04:29:29;44.72;;;18.67;;
54787;SDS011;59598;48.112;16.280;2023-03-04T04:32:02;54.05;;;21.73;;
54787;SDS011;59598;48.112;16.280;2023-03-04T04:34:34;46.03;;;21.48;;
54787;SDS011;59598;48.112;16.280;2023-03-04T04:37:09;44.90;;;20.58;;
54787;SDS011;59598;48.112;16.280;2023-03-04T04:39:40;49.88;;;20.65;;
54787;SDS011;59598;48.112;16.280;2023-03-04T04:42:12;47.28;;;20.80;;
54787;SDS011;59598;48.112;16.280;2023-03-04T04:44:44;47.17;;;22.13;;
54787;SDS011;59598;48.112;16.280;2023-03-04T04:47:20;50.33;;;21.88;;
54787;SDS011;59598;48.112;16.280;2023-03-04T04:49:51;48.33;;;22.52;;
54787;SDS011;59598;48.112;16.280;2023-03-04T04:52:23;50.92;;;23.77;;
54787;SDS011;59598;48.112;16.280;2023-03-04T04:55:01;55.58;;;23.70;;
54787;SDS011;59598;48.112;16.280;2023-03-04T04:57:33;52.95;;;23.52;;
54787;SDS011;59598;48.112;16.280;2023-03-04T05:00:06;56.63;;;23.73;;
54787;SDS011;59598;48.112;16.280;2023-03-04T05:02:45;62.08;;;24.30;;
54787;SDS011;59598;48.112;16.280;2023-03-04T05:05:19;61.10;;;26.30;;
54787;SDS011;59598;48.112;16.280;2023-03-04T05:07:58;63.70;;;26.95;;
54787;SDS011;59598;48.112;16.280;2023-03-04T05:10:29;67.25;;;26.52;;
54787;SDS011;59598;48.112;16.280;2023-03-04T05:13:03;55.83;;;23.08;;
54787;SDS011;59598;48.112;16.280;2023-03-04T05:15:36;52.10;;;24.08;;
54787;SDS011;59598;48.112;16.280;2023-03-04T05:18:08;50.33;;;23.13;;
54787;SDS011;59598;48.112;16.280;2023-03-04T05:20:42;48.22;;;22.38;;
54787;SDS011;59598;48.112;16.280;2023-03-04T05:23:14;53.85;;;23.58;;
54787;SDS011;59598;48.112;16.280;2023-03-04T05:25:45;48.85;;;21.98;;
54787;SDS011;59598;48.112;16.280;2023-03-04T05:28:20;52.85;;;22.58;;
54787;SDS011;59598;48.112;16.280;2023-03-04T05:30:52;48.30;;;23.67;;
54787;SDS011;59598;48.112;16.280;2023-03-04T05:33:37;38.38;;;18.90;;
54787;SDS011;59598;48.112;16.280;2023-03-04T05:36:09;49.88;;;22.85;;
54787;SDS011;59598;48.112;16.280;2023-03-04T05:38:45;51.50;;;23.25;;
54787;SDS011;59598;48.112;16.280;2023-03-04T05:41:17;41.15;;;20.40;;
54787;SDS011;59598;48.112;16.280;2023-03-04T05:43:52;40.50;;;18.80;;
54787;SDS011;59598;48.112;16.280;2023-03-04T05:46:24;47.88;;;20.92;;
54787;SDS011;59598;48.112;16.280;2023-03-04T05:48:56;46.17;;;20.15;;
54787;SDS011;59598;48.112;16.280;2023-03-04T05:51:33;43.00;;;21.02;;
54787;SDS011;59598;48.112;16.280;2023-03-04T05:54:08;42.13;;;20.48;;
54787;SDS011;59598;48.112;16.280;2023-03-04T05:56:40;39.63;;;18.55;;
54787;SDS011;59598;48.112;16.280;2023-03-04T05:59:17;40.53;;;19.80;;
54787;SDS011;59598;48.112;16.280;2023-03-04T06:01:50;39.78;;;19.50;;
54787;SDS011;59598;48.112;16.280;2023-03-04T06:04:22;41.35;;;20.35;;
54787;SDS011;59598;48.112;16.280;2023-03-04T06:06:54;44.08;;;21.02;;
54787;SDS011;59598;48.112;16.280;2023-03-04T06:09:25;41.95;;;20.73;;
54787;SDS011;59598;48.112;16.280;2023-03-04T06:11:57;47.25;;;20.55;;
54787;SDS011;59598;48.112;16.280;2023-03-04T06:14:28;45.55;;;20.27;;
54787;SDS011;59598;48.112;16.280;2023-03-04T06:17:03;42.75;;;19.35;;
54787;SDS011;59598;48.112;16.280;2023-03-04T06:19:40;41.38;;;19.77;;
54787;SDS011;59598;48.112;16.280;2023-03-04T06:22:17;42.53;;;19.70;;
54787;SDS011;59598;48.112;16.280;2023-03-04T06:24:49;40.42;;;20.33;;
54787;SDS011;59598;48.112;16.280;2023-03-04T06:27:20;38.78;;;19.88;;
54787;SDS011;59598;48.112;16.280;2023-03-04T06:29:52;35.80;;;19.55;;
54787;SDS011;59598;48.112;16.280;2023-03-04T06:32:24;35.83;;;16.58;;
54787;SDS011;59598;48.112;16.280;2023-03-04T06:34:55;44.63;;;20.17;;
54787;SDS011;59598;48.112;16.280;2023-03-04T06:37:29;40.03;;;17.70;;
54787;SDS011;59598;48.112;16.280;2023-03-04T06:40:00;35.10;;;18.00;;
54787;SDS011;59598;48.112;16.280;2023-03-04T06:42:33;39.05;;;18.15;;
54787;SDS011;59598;48.112;16.280;2023-03-04T06:45:06;41.28;;;18.65;;
54787;SDS011;59598;48.112;16.280;2023-03-04T06:47:38;35.70;;;17.80;;
54787;SDS011;59598;48.112;16.280;2023-03-04T06:50:15;41.42;;;18.20;;
54787;SDS011;59598;48.112;16.280;2023-03-04T06:52:46;35.60;;;18.42;;
54787;SDS011;59598;48.112;16.280;2023-03-04T06:55:18;41.00;;;19.35;;
54787;SDS011;59598;48.112;16.280;2023-03-04T06:57:53;37.00;;;19.00;;
54787;SDS011;59598;48.112;16.280;2023-03-04T07:00:25;45.33;;;21.88;;
54787;SDS011;59598;48.112;16.280;2023-03-04T07:03:01;40.72;;;20.98;;
54787;SDS011;59598;48.112;16.280;2023-03-04T07:05:38;39.45;;;19.23;;
54787;SDS011;59598;48.112;16.280;2023-03-04T07:08:12;35.00;;;17.65;;
54787;SDS011;59598;48.112;16.280;2023-03-04T07:10:43;35.28;;;18.15;;
54787;SDS011;59598;48.112;16.280;2023-03-04T07:13:15;40.72;;;19.77;;
54787;SDS011;59598;48.112;16.280;2023-03-04T07:15:46;40.80;;;19.90;;
54787;SDS011;59598;48.112;16.280;2023-03-04T07:18:26;31.48;;;16.25;;
54787;SDS011;59598;48.112;16.280;2023-03-04T07:21:04;38.10;;;19.92;;
54787;SDS011;59598;48.112;16.280;2023-03-04T07:23:39;35.60;;;17.23;;
54787;SDS011;59598;48.112;16.280;2023-03-04T07:26:15;39.08;;;19.23;;
54787;SDS011;59598;48.112;16.280;2023-03-04T07:28:47;38.08;;;19.50;;
54787;SDS011;59598;48.112;16.280;2023-03-04T07:31:28;40.80;;;18.85;;
54787;SDS011;59598;48.112;16.280;2023-03-04T07:34:05;31.02;;;17.40;;
54787;SDS011;59598;48.112;16.280;2023-03-04T07:36:44;41.92;;;18.67;;
54787;SDS011;59598;48.112;16.280;2023-03-04T07:39:18;37.47;;;17.92;;
54787;SDS011;59598;48.112;16.280;2023-03-04T07:41:55;40.10;;;18.55;;
54787;SDS011;59598;48.112;16.280;2023-03-04T07:44:27;42.38;;;19.83;;
54787;SDS011;59598;48.112;16.280;2023-03-04T07:46:58;40.50;;;19.80;;
54787;SDS011;59598;48.112;16.280;2023-03-04T07:49:32;35.58;;;20.30;;
54787;SDS011;59598;48.112;16.280;2023-03-04T07:52:04;38.33;;;18.20;;
54787;SDS011;59598;48.112;16.280;2023-03-04T07:54:43;44.00;;;20.58;;
54787;SDS011;59598;48.112;16.280;2023-03-04T07:57:15;40.75;;;19.80;;
54787;SDS011;59598;48.112;16.280;2023-03-04T07:59:46;34.97;;;18.58;;
54787;SDS011;59598;48.112;16.280;2023-03-04T08:02:18;37.53;;;18.38;;
54787;SDS011;59598;48.112;16.280;2023-03-04T08:04:55;43.70;;;18.38;;
54787;SDS011;59598;48.112;16.280;2023-03-04T08:07:27;37.25;;;18.20;;
54787;SDS011;59598;48.112;16.280;2023-03-04T08:10:01;39.08;;;19.25;;
54787;SDS011;59598;48.112;16.280;2023-03-04T08:12:37;36.72;;;18.15;;
54787;SDS011;59598;48.112;16.280;2023-03-04T08:15:09;33.88;;;17.20;;
54787;SDS011;59598;48.112;16.280;2023-03-04T08:17:43;36.03;;;17.95;;
54787;SDS011;59598;48.112;16.280;2023-03-04T08:20:15;37.38;;;17.52;;
54787;SDS011;59598;48.112;16.280;2023-03-04T08:22:47;37.22;;;17.92;;
54787;SDS011;59598;48.112;16.280;2023-03-04T08:25:18;37.28;;;19.17;;
54787;SDS011;59598;48.112;16.280;2023-03-04T08:27:50;33.00;;;17.45;;
54787;SDS011;59598;48.112;16.280;2023-03-04T08:30:23;36.63;;;17.48;;
54787;SDS011;59598;48.112;16.280;2023-03-04T08:32:55;37.28;;;18.40;;
54787;SDS011;59598;48.112;16.280;2023-03-04T08:35:34;33.78;;;17.20;;
54787;SDS011;59598;48.112;16.280;2023-03-04T08:38:10;30.80;;;16.05;;
54787;SDS011;59598;48.112;16.280;2023-03-04T08:40:43;33.33;;;16.45;;
54787;SDS011;59598;48.112;16.280;2023-03-04T08:43:14;35.58;;;16.92;;
54787;SDS011;59598;48.112;16.280;2023-03-04T08:45:46;29.02;;;14.60;;
54787;SDS011;59598;48.112;16.280;2023-03-04T08:48:17;31.58;;;14.88;;
54787;SDS011;59598;48.112;16.280;2023-03-04T08:50:53;29.80;;;14.65;;
54787;SDS011;59598;48.112;16.280;2023-03-04T08:53:24;32.00;;;14.93;;
54787;SDS011;59598;48.112;16.280;2023-03-04T08:58:33;26.33;;;13.38;;
54787;SDS011;59598;48.112;16.280;2023-03-04T09:01:11;30.10;;;14.07;;
54787;SDS011;59598;48.112;16.280;2023-03-04T09:03:46;25.98;;;13.82;;
54787;SDS011;59598;48.112;16.280;2023-03-04T09:06:22;29.38;;;15.90;;
54787;SDS011;59598;48.112;16.280;2023-03-04T09:08:53;27.45;;;14.27;;
54787;SDS011;59598;48.112;16.280;2023-03-04T09:11:27;27.10;;;14.40;;
54787;SDS011;59598;48.112;16.280;2023-03-04T09:14:03;29.08;;;13.88;;
54787;SDS011;59598;48.112;16.280;2023-03-04T09:16:34;33.78;;;15.30;;
54787;SDS011;59598;48.112;16.280;2023-03-04T09:19:06;30.17;;;14.60;;
54787;SDS011;59598;48.112;16.280;2023-03-04T09:21:39;23.80;;;12.63;;
54787;SDS011;59598;48.112;16.280;2023-03-04T09:24:11;27.35;;;14.13;;
54787;SDS011;59598;48.112;16.280;2023-03-04T09:26:42;30.38;;;15.85;;
54787;SDS011;59598;48.112;16.280;2023-03-04T09:29:18;29.13;;;14.15;;
54787;SDS011;59598;48.112;16.280;2023-03-04T09:31:52;29.45;;;15.30;;
54787;SDS011;59598;48.112;16.280;2023-03-04T09:34:24;26.98;;;14.85;;
54787;SDS011;59598;48.112;16.280;2023-03-04T09:36:57;30.88;;;17.10;;
54787;SDS011;59598;48.112;16.280;2023-03-04T09:39:28;28.52;;;16.23;;
54787;SDS011;59598;48.112;16.280;2023-03-04T09:42:01;27.58;;;16.02;;
54787;SDS011;59598;48.112;16.280;2023-03-04T09:44:40;38.15;;;19.23;;
54787;SDS011;59598;48.112;16.280;2023-03-04T09:47:16;27.25;;;15.15;;
54787;SDS011;59598;48.112;16.280;2023-03-04T09:49:55;37.40;;;18.35;;
54787;SDS011;59598;48.112;16.280;2023-03-04T09:55:39;27.50;;;13.60;;
54787;SDS011;59598;48.112;16.280;2023-03-04T10:01:21;32.05;;;17.52;;
54787;SDS011;59598;48.112;16.280;2023-03-04T10:04:32;28.45;;;15.32;;
54787;SDS011;59598;48.112;16.280;2023-03-04T10:07:18;33.70;;;16.10;;
54787;SDS011;59598;48.112;16.280;2023-03-04T10:10:05;25.77;;;13.65;;
54787;SDS011;59598;48.112;16.280;2023-03-04T10:12:46;32.97;;;16.10;;
54787;SDS011;59598;48.112;16.280;2023-03-04T10:15:41;23.00;;;12.75;;
54787;SDS011;59598;48.112;16.280;2023-03-04T10:18:21;30.20;;;13.65;;
54787;SDS011;59598;48.112;16.280;2023-03-04T10:21:26;29.95;;;14.93;;
54787;SDS011;59598;48.112;16.280;2023-03-04T10:24:14;23.83;;;14.65;;
54787;SDS011;59598;48.112;16.280;2023-03-04T10:26:50;31.30;;;14.60;;
54787;SDS011;59598;48.112;16.280;2023-03-04T10:29:31;28.55;;;15.30;;
54787;SDS011;59598;48.112;16.280;2023-03-04T10:32:18;28.83;;;15.27;;
54787;SDS011;59598;48.112;16.280;2023-03-04T10:34:52;25.30;;;14.23;;
54787;SDS011;59598;48.112;16.280;2023-03-04T10:37:41;28.98;;;15.23;;
54787;SDS011;59598;48.112;16.280;2023-03-04T10:40:20;27.13;;;14.10;;
54787;SDS011;59598;48.112;16.280;2023-03-04T10:42:58;26.08;;;13.45;;
54787;SDS011;59598;48.112;16.280;2023-03-04T10:45:38;25.90;;;14.20;;
54787;SDS011;59598;48.112;16.280;2023-03-04T10:48:26;28.23;;;14.93;;
54787;SDS011;59598;48.112;16.280;2023-03-04T10:54:08;25.63;;;12.82;;
54787;SDS011;59598;48.112;16.280;2023-03-04T10:57:05;20.00;;;10.95;;
54787;SDS011;59598;48.112;16.280;2023-03-04T11:00:00;22.80;;;13.02;;
54787;SDS011;59598;48.112;16.280;2023-03-04T11:03:11;25.67;;;12.32;;
54787;SDS011;59598;48.112;16.280;2023-03-04T11:06:11;21.65;;;13.18;;
54787;SDS011;59598;48.112;16.280;2023-03-04T11:08:52;18.27;;;10.52;;
54787;SDS011;59598;48.112;16.280;2023-03-04T11:11:32;22.23;;;12.15;;
54787;SDS011;59598;48.112;16.280;2023-03-04T11:14:16;21.00;;;11.75;;
54787;SDS011;59598;48.112;16.280;2023-03-04T11:16:59;21.73;;;11.52;;
54787;SDS011;59598;48.112;16.280;2023-03-04T11:19:37;18.27;;;11.10;;
54787;SDS011;59598;48.112;16.280;2023-03-04T11:22:19;23.42;;;13.23;;
54787;SDS011;59598;48.112;16.280;2023-03-04T11:24:57;24.92;;;12.95;;
54787;SDS011;59598;48.112;16.280;2023-03-04T11:27:45;21.08;;;12.10;;
54787;SDS011;59598;48.112;16.280;2023-03-04T11:31:01;19.08;;;10.65;;
54787;SDS011;59598;48.112;16.280;2023-03-04T11:33:52;22.35;;;10.52;;
54787;SDS011;59598;48.112;16.280;2023-03-04T11:45:18;18.25;;;10.80;;
54787;SDS011;59598;48.112;16.280;2023-03-04T11:50:48;17.85;;;10.02;;
54787;SDS011;59598;48.112;16.280;2023-03-04T11:53:29;19.08;;;10.07;;
54787;SDS011;59598;48.112;16.280;2023-03-04T12:08:04;16.27;;;10.43;;
54787;SDS011;59598;48.112;16.280;2023-03-04T12:25:13;18.13;;;9.43;;
54787;SDS011;59598;48.112;16.280;2023-03-04T12:40:07;17.73;;;9.30;;
54787;SDS011;59598;48.112;16.280;2023-03-04T12:43:26;16.85;;;9.38;;
54787;SDS011;59598;48.112;16.280;2023-03-04T12:55:21;15.25;;;9.25;;
54787;SDS011;59598;48.112;16.280;2023-03-04T12:58:04;20.25;;;10.75;;
54787;SDS011;59598;48.112;16.280;2023-03-04T13:09:18;16.98;;;9.95;;
54787;SDS011;59598;48.112;16.280;2023-03-04T13:12:20;15.82;;;9.23;;
54787;SDS011;59598;48.112;16.280;2023-03-04T13:15:17;18.20;;;9.63;;
54787;SDS011;59598;48.112;16.280;2023-03-04T13:17:52;18.70;;;10.15;;
54787;SDS011;59598;48.112;16.280;2023-03-04T13:24:39;22.00;;;10.40;;
54787;SDS011;59598;48.112;16.280;2023-03-04T13:36:31;19.77;;;9.27;;
54787;SDS011;59598;48.112;16.280;2023-03-04T13:39:25;15.15;;;9.30;;
54787;SDS011;59598;48.112;16.280;2023-03-04T13:42:04;17.02;;;9.85;;
54787;SDS011;59598;48.112;16.280;2023-03-04T13:45:45;20.10;;;8.68;;
54787;SDS011;59598;48.112;16.280;2023-03-04T13:48:25;14.55;;;7.97;;
54787;SDS011;59598;48.112;16.280;2023-03-04T13:51:13;12.02;;;7.88;;
54787;SDS011;59598;48.112;16.280;2023-03-04T13:54:25;17.65;;;8.02;;
54787;SDS011;59598;48.112;16.280;2023-03-04T13:57:17;15.18;;;9.10;;
54787;SDS011;59598;48.112;16.280;2023-03-04T13:59:53;11.88;;;7.50;;
54787;SDS011;59598;48.112;16.280;2023-03-04T14:02:32;14.30;;;8.10;;
54787;SDS011;59598;48.112;16.280;2023-03-04T14:05:04;13.43;;;7.68;;
54787;SDS011;59598;48.112;16.280;2023-03-04T14:07:39;13.82;;;7.80;;
54787;SDS011;59598;48.112;16.280;2023-03-04T14:10:30;18.02;;;8.20;;
54787;SDS011;59598;48.112;16.280;2023-03-04T14:13:07;16.88;;;8.43;;
54787;SDS011;59598;48.112;16.280;2023-03-04T14:15:39;12.55;;;7.85;;
54787;SDS011;59598;48.112;16.280;2023-03-04T14:18:12;21.33;;;8.13;;
54787;SDS011;59598;48.112;16.280;2023-03-04T14:21:04;14.73;;;8.35;;
54787;SDS011;59598;48.112;16.280;2023-03-04T14:23:45;13.88;;;7.82;;
54787;SDS011;59598;48.112;16.280;2023-03-04T14:26:36;19.42;;;8.75;;
54787;SDS011;59598;48.112;16.280;2023-03-04T14:29:25;15.32;;;8.05;;
54787;SDS011;59598;48.112;16.280;2023-03-04T14:32:00;16.17;;;8.68;;
54787;SDS011;59598;48.112;16.280;2023-03-04T14:34:35;14.20;;;8.07;;
54787;SDS011;59598;48.112;16.280;2023-03-04T14:37:21;14.00;;;8.00;;
54787;SDS011;59598;48.112;16.280;2023-03-04T14:39:56;12.52;;;7.30;;
54787;SDS011;59598;48.112;16.280;2023-03-04T14:42:35;17.77;;;8.63;;
54787;SDS011;59598;48.112;16.280;2023-03-04T14:45:12;18.10;;;8.90;;
54787;SDS011;59598;48.112;16.280;2023-03-04T14:47:46;12.60;;;8.13;;
54787;SDS011;59598;48.112;16.280;2023-03-04T14:50:19;16.45;;;7.72;;
54787;SDS011;59598;48.112;16.280;2023-03-04T14:56:08;14.98;;;8.18;;
54787;SDS011;59598;48.112;16.280;2023-03-04T14:58:55;16.00;;;8.98;;
54787;SDS011;59598;48.112;16.280;2023-03-04T15:01:33;12.60;;;7.72;;
54787;SDS011;59598;48.112;16.280;2023-03-04T15:04:08;14.57;;;7.97;;
54787;SDS011;59598;48.112;16.280;2023-03-04T15:06:48;13.53;;;8.07;;
54787;SDS011;59598;48.112;16.280;2023-03-04T15:09:23;16.48;;;8.50;;
54787;SDS011;59598;48.112;16.280;2023-03-04T15:12:00;16.20;;;9.10;;
54787;SDS011;59598;48.112;16.280;2023-03-04T15:25:14;12.07;;;7.38;;
54787;SDS011;59598;48.112;16.280;2023-03-04T15:27:49;14.43;;;7.85;;
54787;SDS011;59598;48.112;16.280;2023-03-04T15:30:27;13.80;;;7.55;;
54787;SDS011;59598;48.112;16.280;2023-03-04T15:33:04;15.90;;;8.18;;
54787;SDS011;59598;48.112;16.280;2023-03-04T15:35:40;14.85;;;7.95;;
54787;SDS011;59598;48.112;16.280;2023-03-04T15:38:21;13.15;;;7.15;;
54787;SDS011;59598;48.112;16.280;2023-03-04T15:40:54;11.98;;;7.78;;
54787;SDS011;59598;48.112;16.280;2023-03-04T15:43:28;13.15;;;7.57;;
54787;SDS011;59598;48.112;16.280;2023-03-04T15:46:02;15.30;;;8.38;;
54787;SDS011;59598;48.112;16.280;2023-03-04T15:48:34;12.07;;;7.00;;
54787;SDS011;59598;48.112;16.280;2023-03-04T15:51:09;13.32;;;7.82;;
54787;SDS011;59598;48.112;16.280;2023-03-04T15:53:51;19.08;;;7.47;;
54787;SDS011;59598;48.112;16.280;2023-03-04T15:56:28;16.65;;;8.13;;
54787;SDS011;59598;48.112;16.280;2023-03-04T15:59:09;15.48;;;9.00;;
54787;SDS011;59598;48.112;16.280;2023-03-04T16:01:45;15.77;;;8.70;;
54787;SDS011;59598;48.112;16.280;2023-03-04T16:04:16;14.00;;;7.97;;
54787;SDS011;59598;48.112;16.280;2023-03-04T16:06:51;18.75;;;8.90;;
54787;SDS011;59598;48.112;16.280;2023-03-04T16:09:22;18.23;;;9.07;;
54787;SDS011;59598;48.112;16.280;2023-03-04T16:12:00;16.67;;;9.68;;
54787;SDS011;59598;48.112;16.280;2023-03-04T16:14:32;20.98;;;9.50;;
54787;SDS011;59598;48.112;16.280;2023-03-04T16:17:03;17.30;;;9.35;;
54787;SDS011;59598;48.112;16.280;2023-03-04T16:19:41;18.45;;;10.10;;
54787;SDS011;59598;48.112;16.280;2023-03-04T16:22:16;18.40;;;9.88;;
54787;SDS011;59598;48.112;16.280;2023-03-04T16:24:55;16.15;;;8.63;;
54787;SDS011;59598;48.112;16.280;2023-03-04T16:27:27;16.60;;;9.63;;
54787;SDS011;59598;48.112;16.280;2023-03-04T16:29:59;17.42;;;8.82;;
54787;SDS011;59598;48.112;16.280;2023-03-04T16:35:05;17.15;;;9.82;;
54787;SDS011;59598;48.112;16.280;2023-03-04T16:37:40;18.92;;;9.07;;
54787;SDS011;59598;48.112;16.280;2023-03-04T16:40:13;19.33;;;10.60;;
54787;SDS011;59598;48.112;16.280;2023-03-04T16:42:47;14.48;;;8.57;;
54787;SDS011;59598;48.112;16.280;2023-03-04T16:45:19;17.20;;;9.30;;
54787;SDS011;59598;48.112;16.280;2023-03-04T16:47:59;17.10;;;9.48;;
54787;SDS011;59598;48.112;16.280;2023-03-04T16:50:34;19.35;;;9.77;;
54787;SDS011;59598;48.112;16.280;2023-03-04T16:53:15;14.95;;;9.32;;
54787;SDS011;59598;48.112;16.280;2023-03-04T16:56:09;16.98;;;9.75;;
54787;SDS011;59598;48.112;16.280;2023-03-04T16:58:45;18.95;;;10.65;;
54787;SDS011;59598;48.112;16.280;2023-03-04T17:01:21;15.60;;;9.98;;
54787;SDS011;59598;48.112;16.280;2023-03-04T17:04:00;19.15;;;9.75;;
54787;SDS011;59598;48.112;16.280;2023-03-04T17:06:31;15.63;;;9.30;;
54787;SDS011;59598;48.112;16.280;2023-03-04T17:09:06;23.75;;;12.50;;